Philadelphia, Pennsylvania
Current Conditions -  °F | °C
As of 4:54 PM on Tuesday 25 Nov 2014 (Local Time) from KPHL Reporting Station
Overcast Overcast  
Wind Chill: 52°   Ceiling: 20000
Heat Index: 52°   Visibility: 10mi
Dew Point: 31°   Wind: 7mph
Humidity: 45%   Direction: 220°SW
Pressure: 30.07"   Gusts: NA
Location:  39.95°N, 75.16°W
Report Text: KPHL 252154Z 22006KT 10SM BKN200 OVC250 11/M01 A3007 RMK AO2 SLP180 T01111006 $
Loading
Personal Weather Stations






























Interactive Weather Map New forecast layout! Learn more

10-Day Weather Forecast

Advertisements
Track Severe Weather on mobile